createdAt,value
2023-04-28T00:00:48.697Z,28.87
2023-04-28T00:03:03.737Z,28.93
2023-04-28T00:05:28.126Z,28.98
2023-04-28T00:07:44.165Z,29.02
2023-04-28T00:09:58.084Z,29.07
2023-04-28T00:12:11.466Z,29.13
2023-04-28T00:14:24.030Z,29.16
2023-04-28T00:16:36.834Z,29.17
2023-04-28T00:19:20.349Z,29.19
2023-04-28T00:21:36.601Z,29.21
2023-04-28T00:23:49.285Z,29.21
2023-04-28T00:26:02.083Z,29.26
2023-04-28T00:28:34.250Z,29.29
2023-04-28T00:30:48.261Z,29.30
2023-04-28T00:33:04.285Z,29.31
2023-04-28T00:35:17.529Z,29.32
2023-04-28T00:37:33.095Z,29.32
2023-04-28T00:39:48.625Z,29.32
2023-04-28T00:42:02.045Z,29.31
2023-04-28T00:44:15.057Z,29.30
2023-04-28T00:46:33.124Z,29.31
2023-04-28T00:48:46.002Z,29.31
2023-04-28T00:50:58.864Z,29.27
2023-04-28T00:53:11.693Z,29.24
2023-04-28T00:55:25.165Z,29.23
2023-04-28T00:57:38.614Z,29.21
2023-04-28T00:59:54.902Z,29.21
2023-04-28T01:02:10.102Z,29.20
2023-04-28T01:04:24.442Z,29.18
2023-04-28T01:06:39.081Z,29.15
2023-04-28T01:08:54.533Z,29.12
2023-04-28T01:11:08.101Z,29.08
2023-04-28T01:13:38.978Z,29.05
2023-04-28T01:15:52.241Z,29.04
2023-04-28T01:18:05.677Z,29.02
2023-04-28T01:20:20.145Z,29.01
2023-04-28T01:22:33.975Z,28.99
2023-04-28T01:24:46.719Z,28.94
2023-04-28T01:26:59.703Z,28.90
2023-04-28T01:29:13.612Z,28.89
2023-04-28T01:31:28.752Z,28.84
2023-04-28T01:33:41.814Z,28.79
2023-04-28T01:35:54.791Z,28.77
2023-04-28T01:38:08.034Z,28.73
2023-04-28T01:40:24.278Z,28.66
2023-04-28T01:42:37.093Z,28.65
2023-04-28T01:44:51.079Z,28.57
2023-04-28T01:47:04.262Z,28.50
2023-04-28T01:49:17.440Z,28.45
2023-04-28T01:51:30.256Z,28.42
2023-04-28T01:53:43.430Z,28.41
2023-04-28T01:55:56.959Z,28.40
2023-04-28T01:58:09.921Z,28.39
2023-04-28T02:00:25.810Z,28.36
2023-04-28T02:02:39.234Z,28.32
2023-04-28T02:04:52.755Z,28.28
2023-04-28T02:07:05.715Z,28.24
2023-04-28T02:09:19.030Z,28.19
2023-04-28T02:11:31.759Z,28.15
2023-04-28T02:13:44.857Z,28.11
2023-04-28T02:15:58.998Z,28.06
2023-04-28T02:18:13.404Z,28.00
2023-04-28T02:20:37.205Z,27.96
2023-04-28T02:22:50.249Z,27.92
2023-04-28T02:25:03.327Z,27.86
2023-04-28T02:27:16.471Z,27.82
2023-04-28T02:29:29.704Z,27.78
2023-04-28T02:31:44.364Z,27.74
2023-04-28T02:33:57.794Z,27.70
2023-04-28T02:36:13.564Z,27.63
2023-04-28T02:38:26.205Z,27.57
2023-04-28T02:40:39.285Z,27.52
2023-04-28T02:42:51.787Z,27.47
2023-04-28T02:45:05.264Z,27.42
2023-04-28T02:47:18.581Z,27.36
2023-04-28T02:49:31.086Z,27.31
2023-04-28T02:51:44.284Z,27.25
2023-04-28T02:53:57.204Z,27.18
2023-04-28T02:56:10.628Z,27.12
2023-04-28T02:58:24.062Z,27.05
2023-04-28T03:00:37.585Z,26.98
2023-04-28T03:02:50.579Z,26.92
2023-04-28T03:05:03.422Z,26.85
2023-04-28T03:07:16.500Z,26.78
2023-04-28T03:09:32.632Z,26.71
2023-04-28T03:11:49.341Z,26.65
2023-04-28T03:14:02.018Z,26.68
2023-04-28T03:16:15.029Z,26.64
2023-04-28T03:18:27.911Z,26.56
2023-04-28T03:20:41.295Z,26.46
2023-04-28T03:22:56.903Z,26.39
2023-04-28T03:25:10.576Z,26.32
2023-04-28T03:27:30.402Z,26.23
2023-04-28T03:29:43.153Z,26.14
2023-04-28T03:31:56.219Z,26.08
2023-04-28T03:34:08.944Z,25.99
2023-04-28T03:36:21.737Z,25.89
2023-04-28T03:38:34.611Z,25.82
2023-04-28T03:40:47.789Z,25.74
2023-04-28T03:43:02.127Z,25.65
2023-04-28T03:45:20.744Z,25.58
2023-04-28T03:47:33.513Z,25.51
2023-04-28T03:49:46.628Z,25.43
2023-04-28T03:51:59.661Z,25.39
2023-04-28T03:54:16.186Z,25.31
2023-04-28T03:56:29.560Z,25.24
2023-04-28T03:58:42.284Z,25.17
2023-04-28T04:00:55.292Z,25.10
2023-04-28T04:03:08.210Z,25.03
2023-04-28T04:05:21.081Z,24.96
2023-04-28T04:07:34.438Z,24.88
2023-04-28T04:09:47.158Z,24.83
2023-04-28T04:11:59.950Z,24.77
2023-04-28T04:14:13.650Z,24.70
2023-04-28T04:16:30.843Z,24.63
2023-04-28T04:18:45.828Z,24.55
2023-04-28T04:21:12.234Z,24.49
2023-04-28T04:23:30.463Z,24.43
2023-04-28T04:25:53.253Z,24.36
2023-04-28T04:28:06.060Z,24.32
2023-04-28T04:30:20.312Z,24.27
2023-04-28T04:32:34.267Z,24.23
2023-04-28T04:34:47.779Z,24.20
2023-04-28T04:37:00.444Z,24.14
2023-04-28T04:39:13.584Z,24.05
2023-04-28T04:41:26.903Z,23.93
2023-04-28T04:43:59.452Z,23.78
2023-04-28T04:46:15.700Z,23.67
2023-04-28T04:48:28.377Z,23.57
2023-04-28T04:50:40.900Z,23.49
2023-04-28T04:52:55.559Z,23.42
2023-04-28T04:55:09.513Z,23.31
2023-04-28T04:57:22.571Z,23.23
2023-04-28T05:00:04.367Z,23.18
2023-04-28T05:02:18.334Z,23.12
2023-04-28T05:04:31.590Z,23.08
2023-04-28T05:06:45.663Z,23.00
2023-04-28T05:09:00.365Z,22.93
2023-04-28T05:11:13.158Z,22.87
2023-04-28T05:13:26.146Z,22.83
2023-04-28T05:15:44.022Z,22.77
2023-04-28T05:18:16.119Z,22.66
2023-04-28T05:20:28.912Z,22.58
2023-04-28T05:22:42.442Z,22.51
2023-04-28T05:24:54.988Z,22.44
2023-04-28T05:27:08.764Z,22.34
2023-04-28T05:29:21.742Z,22.23
2023-04-28T05:31:35.573Z,22.12
2023-04-28T05:33:48.888Z,22.04
2023-04-28T05:36:01.793Z,21.96
2023-04-28T05:38:15.333Z,21.85
2023-04-28T05:40:30.303Z,21.80
2023-04-28T05:42:43.061Z,21.74
2023-04-28T05:44:56.439Z,21.69
2023-04-28T05:47:10.350Z,21.63
2023-04-28T05:49:23.630Z,21.59
2023-04-28T05:51:36.608Z,21.53
2023-04-28T05:53:50.078Z,21.48
2023-04-28T05:56:03.005Z,21.41
2023-04-28T05:58:15.650Z,21.33
2023-04-28T06:00:28.934Z,21.26
2023-04-28T06:02:44.273Z,21.20
2023-04-28T06:04:57.752Z,21.12
2023-04-28T06:07:13.928Z,21.05
2023-04-28T06:09:27.308Z,21.01
2023-04-28T06:11:40.110Z,20.97
2023-04-28T06:13:53.367Z,20.97
2023-04-28T06:16:06.400Z,20.94
2023-04-28T06:18:19.847Z,20.85
2023-04-28T06:20:33.400Z,20.80
2023-04-28T06:22:46.588Z,20.70
2023-04-28T06:24:59.304Z,20.62
2023-04-28T06:27:18.858Z,20.56
2023-04-28T06:29:31.719Z,20.51
2023-04-28T06:31:44.384Z,20.46
2023-04-28T06:33:57.488Z,20.38
2023-04-28T06:36:14.892Z,20.31
2023-04-28T06:38:27.971Z,20.27
2023-04-28T06:40:41.806Z,20.20
2023-04-28T06:42:54.794Z,20.13
2023-04-28T06:45:18.651Z,20.09
2023-04-28T06:47:31.406Z,20.05
2023-04-28T06:49:45.384Z,20.01
2023-04-28T06:51:58.715Z,19.97
2023-04-28T06:54:15.774Z,19.92
2023-04-28T06:56:29.703Z,19.89
2023-04-28T06:58:45.600Z,19.85
2023-04-28T07:00:58.793Z,19.84
2023-04-28T07:03:11.845Z,19.81
2023-04-28T07:05:24.666Z,19.84
2023-04-28T07:07:37.485Z,19.78
2023-04-28T07:09:50.267Z,19.75
2023-04-28T07:12:02.862Z,19.76
2023-04-28T07:14:15.615Z,19.75
2023-04-28T07:16:28.590Z,19.72
2023-04-28T07:18:41.066Z,19.69
2023-04-28T07:20:54.386Z,19.59
2023-04-28T07:23:08.214Z,19.53
2023-04-28T07:27:46.922Z,19.41
2023-04-28T07:29:59.396Z,19.37
2023-04-28T07:32:12.701Z,19.33
2023-04-28T07:34:25.999Z,19.30
2023-04-28T07:36:38.854Z,19.28
2023-04-28T07:39:00.801Z,19.26
2023-04-28T07:41:13.625Z,19.21
2023-04-28T07:43:26.270Z,19.22
2023-04-28T07:45:40.107Z,19.20
2023-04-28T07:47:52.814Z,19.18
2023-04-28T07:50:07.424Z,19.15
2023-04-28T07:52:20.474Z,19.09
2023-04-28T07:54:35.041Z,19.03
2023-04-28T07:56:49.837Z,19.00
2023-04-28T07:59:02.499Z,18.97
2023-04-28T08:01:15.421Z,18.93
2023-04-28T08:03:28.271Z,18.89
2023-04-28T08:05:41.609Z,18.84
2023-04-28T08:07:54.293Z,18.81
2023-04-28T08:10:07.024Z,18.78
2023-04-28T08:12:19.871Z,18.73
2023-04-28T08:14:32.696Z,18.68
2023-04-28T08:16:46.876Z,18.63
2023-04-28T08:19:00.439Z,18.59
2023-04-28T08:21:13.317Z,18.54
2023-04-28T08:23:29.439Z,18.49
2023-04-28T08:25:42.753Z,18.44
2023-04-28T08:27:57.474Z,18.40
2023-04-28T08:30:20.336Z,18.35
2023-04-28T08:32:33.724Z,18.30
2023-04-28T08:34:46.624Z,18.25
2023-04-28T08:36:59.589Z,18.20
2023-04-28T08:39:13.531Z,18.15
2023-04-28T08:41:27.381Z,18.10
2023-04-28T08:43:42.439Z,18.03
2023-04-28T08:45:56.418Z,17.97
2023-04-28T08:48:22.377Z,17.92
2023-04-28T08:50:38.420Z,17.89
2023-04-28T08:52:51.476Z,17.87
2023-04-28T08:55:05.035Z,17.85
2023-04-28T08:57:18.073Z,17.84
2023-04-28T08:59:30.906Z,17.85
2023-04-28T09:01:43.495Z,17.85
2023-04-28T09:03:57.482Z,17.86
2023-04-28T09:06:10.422Z,17.87
2023-04-28T09:08:23.423Z,17.87
2023-04-28T09:10:36.162Z,17.85
2023-04-28T09:12:49.285Z,17.87
2023-04-28T09:15:10.472Z,17.87
2023-04-28T09:17:23.277Z,17.86
2023-04-28T09:19:43.824Z,17.84
2023-04-28T09:21:59.374Z,17.84
2023-04-28T09:24:13.210Z,17.84
2023-04-28T09:26:26.097Z,17.84
2023-04-28T09:28:39.918Z,17.82
2023-04-28T09:30:52.923Z,17.81
2023-04-28T09:33:12.272Z,17.80
2023-04-28T09:35:46.515Z,17.81
2023-04-28T09:38:05.999Z,17.81
2023-04-28T09:40:20.252Z,17.81
2023-04-28T09:42:47.671Z,17.81
2023-04-28T09:45:01.168Z,17.81
2023-04-28T09:47:26.541Z,17.81
2023-04-28T09:49:56.827Z,17.81
2023-04-28T09:52:25.138Z,17.81
2023-04-28T09:54:39.480Z,17.80
2023-04-28T09:56:53.617Z,17.80
2023-04-28T09:59:07.513Z,17.80
2023-04-28T10:04:24.797Z,17.78
2023-04-28T10:06:39.899Z,17.80
2023-04-28T10:08:54.386Z,17.75
2023-04-28T10:11:07.892Z,17.70
2023-04-28T10:13:21.107Z,17.67
2023-04-28T10:15:33.876Z,17.63
2023-04-28T10:17:47.248Z,17.59
2023-04-28T10:20:00.165Z,17.58
2023-04-28T10:22:27.985Z,17.54
2023-04-28T10:25:00.334Z,17.52
2023-04-28T10:27:14.781Z,17.47
2023-04-28T10:29:33.673Z,17.44
2023-04-28T10:32:22.536Z,17.41
2023-04-28T10:34:35.052Z,17.37
2023-04-28T10:36:59.034Z,17.35
2023-04-28T10:39:18.259Z,17.34
2023-04-28T10:41:40.261Z,17.33
2023-04-28T10:43:52.914Z,17.33
2023-04-28T10:46:10.761Z,17.31
2023-04-28T10:48:25.082Z,17.28
2023-04-28T10:50:39.395Z,17.25
2023-04-28T10:52:58.189Z,17.25
2023-04-28T10:55:34.133Z,17.24
2023-04-28T10:57:48.597Z,17.22
2023-04-28T11:00:33.683Z,17.18
2023-04-28T11:02:48.154Z,17.15
2023-04-28T11:05:21.867Z,17.13
2023-04-28T11:07:34.662Z,17.10
2023-04-28T11:09:57.885Z,17.08
2023-04-28T11:12:13.855Z,17.05
2023-04-28T11:14:43.248Z,17.03
2023-04-28T11:16:57.088Z,17.00
2023-04-28T11:19:11.982Z,16.97
2023-04-28T11:21:25.584Z,16.95
2023-04-28T11:23:38.216Z,16.92
2023-04-28T11:26:09.647Z,16.90
2023-04-28T11:28:23.122Z,16.87
2023-04-28T11:30:36.005Z,16.84
2023-04-28T11:32:49.040Z,16.80
2023-04-28T11:35:01.625Z,16.78
2023-04-28T11:37:19.207Z,16.75
2023-04-28T11:39:36.050Z,16.73
2023-04-28T11:41:49.256Z,16.70
2023-04-28T11:44:01.725Z,16.69
2023-04-28T11:46:19.247Z,16.68
2023-04-28T11:48:31.872Z,16.66
2023-04-28T11:50:46.463Z,16.65
2023-04-28T11:52:59.079Z,16.62
2023-04-28T11:55:19.618Z,16.61
2023-04-28T11:57:32.054Z,16.58
2023-04-28T11:59:44.934Z,16.59
2023-04-28T12:02:00.264Z,16.57
2023-04-28T12:04:13.921Z,16.54
2023-04-28T12:06:27.066Z,16.47
2023-04-28T12:08:39.724Z,16.36
2023-04-28T12:11:18.349Z,16.23
2023-04-28T12:13:32.573Z,16.04
2023-04-28T12:15:48.583Z,15.91
2023-04-28T12:18:12.332Z,15.77
2023-04-28T12:20:41.013Z,15.64
2023-04-28T12:22:54.141Z,15.53
2023-04-28T12:25:14.993Z,15.43
2023-04-28T12:27:28.029Z,15.32
2023-04-28T12:29:45.140Z,15.24
2023-04-28T12:31:59.005Z,15.16
2023-04-28T12:34:11.427Z,15.10
2023-04-28T12:36:23.867Z,15.04
2023-04-28T12:38:36.802Z,14.98
2023-04-28T12:40:49.656Z,14.94
2023-04-28T12:43:02.190Z,14.92
2023-04-28T12:45:15.514Z,14.90
2023-04-28T12:47:28.009Z,14.90
2023-04-28T12:49:40.803Z,14.93
2023-04-28T12:51:53.590Z,14.97
2023-04-28T12:54:06.238Z,15.00
2023-04-28T12:56:22.617Z,15.04
2023-04-28T12:58:36.033Z,15.11
2023-04-28T13:00:48.561Z,15.14
2023-04-28T13:03:01.531Z,15.18
2023-04-28T13:05:15.439Z,15.21
2023-04-28T13:07:28.707Z,15.26
2023-04-28T13:09:41.444Z,15.31
2023-04-28T13:11:54.560Z,15.36
2023-04-28T13:14:07.219Z,15.40
2023-04-28T13:16:19.941Z,15.44
2023-04-28T13:18:32.536Z,15.48
2023-04-28T13:20:45.244Z,15.51
2023-04-28T13:22:57.874Z,15.56
2023-04-28T13:25:11.396Z,15.59
2023-04-28T13:27:24.030Z,15.63
2023-04-28T13:29:36.479Z,15.66
2023-04-28T13:31:49.276Z,15.69
2023-04-28T13:34:03.096Z,15.74
2023-04-28T13:36:15.859Z,15.74
2023-04-28T13:38:29.013Z,15.73
2023-04-28T13:40:43.383Z,15.70
2023-04-28T13:42:56.240Z,15.71
2023-04-28T13:45:09.786Z,15.71
2023-04-28T13:47:22.707Z,15.71
2023-04-28T13:49:35.284Z,15.73
2023-04-28T13:51:48.714Z,15.79
2023-04-28T13:54:01.109Z,15.89
2023-04-28T13:56:14.119Z,15.90
2023-04-28T13:58:26.845Z,15.90
2023-04-28T14:00:40.411Z,15.90
2023-04-28T14:02:53.172Z,15.91
2023-04-28T14:05:06.218Z,15.93
2023-04-28T14:07:18.791Z,15.94
2023-04-28T14:09:31.402Z,15.96
2023-04-28T14:11:44.015Z,15.97
2023-04-28T14:13:56.575Z,15.95
2023-04-28T14:16:09.261Z,15.95
2023-04-28T14:18:21.958Z,16.27
2023-04-28T14:20:34.408Z,17.14
2023-04-28T14:22:47.447Z,17.97
2023-04-28T14:24:59.994Z,18.24
2023-04-28T14:27:12.642Z,18.34
2023-04-28T14:29:25.199Z,18.23
2023-04-28T14:31:37.743Z,18.04
2023-04-28T14:33:50.291Z,17.87
2023-04-28T14:36:03.409Z,17.74
2023-04-28T14:38:16.029Z,17.74
2023-04-28T14:40:28.824Z,17.62
2023-04-28T14:42:42.296Z,17.56
2023-04-28T14:44:54.957Z,17.56
2023-04-28T14:47:07.617Z,17.59
2023-04-28T14:49:20.371Z,17.63
2023-04-28T14:51:32.824Z,17.75
2023-04-28T14:53:45.198Z,17.91
2023-04-28T14:56:10.874Z,18.16
2023-04-28T14:58:30.495Z,18.65
2023-04-28T15:00:43.378Z,19.23
2023-04-28T15:02:56.291Z,19.95
2023-04-28T15:05:09.885Z,20.74
2023-04-28T15:07:23.815Z,21.50
2023-04-28T15:09:36.572Z,22.22
2023-04-28T15:11:49.142Z,22.78
2023-04-28T15:14:01.523Z,23.31
2023-04-28T15:16:14.168Z,23.79
2023-04-28T15:18:26.757Z,24.23
2023-04-28T15:20:40.083Z,24.62
2023-04-28T15:22:52.858Z,24.94
2023-04-28T15:25:05.490Z,25.20
2023-04-28T15:27:18.169Z,25.42
2023-04-28T15:29:30.748Z,25.59
2023-04-28T15:31:43.457Z,25.81
2023-04-28T15:33:56.526Z,26.03
2023-04-28T15:36:09.511Z,26.26
2023-04-28T15:38:23.140Z,26.46
2023-04-28T15:40:35.632Z,26.63
2023-04-28T15:42:50.431Z,26.71
2023-04-28T15:45:03.527Z,26.78
2023-04-28T15:47:15.924Z,26.88
2023-04-28T15:49:29.885Z,26.90
2023-04-28T15:51:43.395Z,26.86
2023-04-28T15:53:58.025Z,26.86
2023-04-28T15:56:10.691Z,26.81
2023-04-28T15:58:23.990Z,26.74
2023-04-28T16:00:37.033Z,26.69
2023-04-28T16:02:50.218Z,26.63
2023-04-28T16:05:03.704Z,26.57
2023-04-28T16:07:16.248Z,26.56
2023-04-28T16:09:31.431Z,26.59
2023-04-28T16:11:44.282Z,26.63
2023-04-28T16:13:56.846Z,26.61
2023-04-28T16:16:12.063Z,26.48
2023-04-28T16:18:24.961Z,26.37
2023-04-28T16:20:37.395Z,26.32
2023-04-28T16:22:50.310Z,26.31
2023-04-28T16:25:05.024Z,26.28
2023-04-28T16:27:17.446Z,26.29
2023-04-28T16:29:30.014Z,26.36
2023-04-28T16:31:42.705Z,26.43
2023-04-28T16:33:55.345Z,26.46
2023-04-28T16:36:07.853Z,26.48
2023-04-28T16:38:20.885Z,26.53
2023-04-28T16:40:34.249Z,26.63
2023-04-28T16:42:47.706Z,26.67
2023-04-28T16:45:00.871Z,26.71
2023-04-28T16:47:13.479Z,26.78
2023-04-28T16:49:26.181Z,26.91
2023-04-28T16:51:39.674Z,27.00
2023-04-28T16:53:53.616Z,27.06
2023-04-28T16:56:07.159Z,27.10
2023-04-28T16:58:21.557Z,27.12
2023-04-28T17:00:34.339Z,27.10
2023-04-28T17:02:47.415Z,27.11
2023-04-28T17:05:00.291Z,27.10
2023-04-28T17:07:12.731Z,27.13
2023-04-28T17:09:26.866Z,27.19
2023-04-28T17:11:40.636Z,27.22
2023-04-28T17:13:53.400Z,27.26
2023-04-28T17:16:06.738Z,27.33
2023-04-28T17:18:19.337Z,27.40
2023-04-28T17:20:32.222Z,27.46
2023-04-28T17:22:44.880Z,27.57
2023-04-28T17:24:58.375Z,27.65
2023-04-28T17:27:12.220Z,27.77
2023-04-28T17:29:25.709Z,27.92
2023-04-28T17:31:39.224Z,27.97
2023-04-28T17:33:53.598Z,28.01
2023-04-28T17:36:07.860Z,28.00
2023-04-28T17:38:20.375Z,27.99
2023-04-28T17:40:33.282Z,28.00
2023-04-28T17:42:47.913Z,28.00
2023-04-28T17:45:01.209Z,28.04
2023-04-28T17:47:16.947Z,28.13
2023-04-28T17:49:30.056Z,28.29
2023-04-28T17:51:42.479Z,28.38
2023-04-28T17:53:57.784Z,28.45
2023-04-28T17:56:12.071Z,28.57
2023-04-28T17:58:24.727Z,28.67
2023-04-28T18:00:37.374Z,28.71
2023-04-28T18:02:50.127Z,28.79
2023-04-28T18:05:03.100Z,28.92
2023-04-28T18:07:15.752Z,29.04
2023-04-28T18:09:31.517Z,29.09
2023-04-28T18:11:43.958Z,29.16
2023-04-28T18:13:57.071Z,29.16
2023-04-28T18:16:14.849Z,29.12
2023-04-28T18:18:29.804Z,29.10
2023-04-28T18:20:43.354Z,29.12
2023-04-28T18:22:57.546Z,29.08
2023-04-28T18:25:10.622Z,29.12
2023-04-28T18:27:23.063Z,29.10
2023-04-28T18:29:35.498Z,29.07
2023-04-28T18:31:48.101Z,29.10
2023-04-28T18:34:00.737Z,29.14
2023-04-28T18:36:13.420Z,29.19
2023-04-28T18:38:26.164Z,29.21
2023-04-28T18:40:42.198Z,29.26
2023-04-28T18:42:54.697Z,29.29
2023-04-28T18:45:09.078Z,29.30
2023-04-28T18:47:21.664Z,29.34
2023-04-28T18:49:34.518Z,29.37
2023-04-28T18:51:46.941Z,29.37
2023-04-28T18:54:00.200Z,29.39
2023-04-28T18:56:12.794Z,29.42
2023-04-28T18:58:25.453Z,29.47
2023-04-28T19:00:39.418Z,29.55
2023-04-28T19:02:52.104Z,29.83
2023-04-28T19:05:06.658Z,29.71
2023-04-28T19:07:19.365Z,29.64
2023-04-28T19:09:32.418Z,29.57
2023-04-28T19:11:44.863Z,29.55
2023-04-28T19:13:57.612Z,29.59
2023-04-28T19:16:10.949Z,29.61
2023-04-28T19:18:23.698Z,29.58
2023-04-28T19:20:36.285Z,29.66
2023-04-28T19:22:49.258Z,29.64
2023-04-28T19:25:02.382Z,29.64
2023-04-28T19:27:15.304Z,29.68
2023-04-28T19:29:27.763Z,29.76
2023-04-28T19:31:40.112Z,29.88
2023-04-28T19:33:52.523Z,29.92
2023-04-28T19:36:07.089Z,30.04
2023-04-28T19:38:20.836Z,30.18
2023-04-28T19:40:34.006Z,30.25
2023-04-28T19:42:46.437Z,30.34
2023-04-28T19:45:02.301Z,30.36
2023-04-28T19:47:15.678Z,30.41
2023-04-28T19:49:28.805Z,30.45
2023-04-28T19:51:41.333Z,30.47
2023-04-28T19:53:56.264Z,30.48
2023-04-28T19:56:11.056Z,30.49
2023-04-28T19:58:24.444Z,30.48
2023-04-28T20:00:37.125Z,30.53
2023-04-28T20:02:49.867Z,30.61
2023-04-28T20:05:04.822Z,30.71
2023-04-28T20:07:17.303Z,30.78
2023-04-28T20:09:30.067Z,30.82
2023-04-28T20:11:43.236Z,30.94
2023-04-28T20:13:56.013Z,30.97
2023-04-28T20:16:08.778Z,30.98
2023-04-28T20:18:21.895Z,31.04
2023-04-28T20:20:34.730Z,31.07
2023-04-28T20:22:51.688Z,31.08
2023-04-28T20:25:06.992Z,31.15
2023-04-28T20:27:19.557Z,31.28
2023-04-28T20:29:35.541Z,31.45
2023-04-28T20:31:48.419Z,31.57
2023-04-28T20:34:01.133Z,31.58
2023-04-28T20:36:13.797Z,31.61
2023-04-28T20:38:26.643Z,31.58
2023-04-28T20:40:39.929Z,31.62
2023-04-28T20:42:52.934Z,31.58
2023-04-28T20:45:06.276Z,31.59
2023-04-28T20:47:18.946Z,31.66
2023-04-28T20:49:32.080Z,31.75
2023-04-28T20:51:46.628Z,31.84
2023-04-28T20:53:59.319Z,31.88
2023-04-28T20:56:12.445Z,31.91
2023-04-28T20:58:24.938Z,31.97
2023-04-28T21:00:41.328Z,31.92
2023-04-28T21:02:55.035Z,31.84
2023-04-28T21:05:08.529Z,31.82
2023-04-28T21:07:20.889Z,31.73
2023-04-28T21:09:33.413Z,31.81
2023-04-28T21:11:46.557Z,31.90
2023-04-28T21:14:00.313Z,31.97
2023-04-28T21:16:20.979Z,32.00
2023-04-28T21:18:34.078Z,32.02
2023-04-28T21:20:47.274Z,32.03
2023-04-28T21:23:00.129Z,31.97
2023-04-28T21:25:14.116Z,31.96
2023-04-28T21:27:26.848Z,32.00
2023-04-28T21:29:39.557Z,31.98
2023-04-28T21:31:52.653Z,31.94
2023-04-28T21:34:05.712Z,31.95
2023-04-28T21:36:18.208Z,32.03
2023-04-28T21:38:34.388Z,32.12
2023-04-28T21:40:46.762Z,32.14
2023-04-28T21:42:59.801Z,32.12
2023-04-28T21:45:14.777Z,32.16
2023-04-28T21:47:28.233Z,32.17
2023-04-28T21:49:41.517Z,32.14
2023-04-28T21:51:54.866Z,32.12
2023-04-28T21:54:07.434Z,32.08
2023-04-28T21:56:20.287Z,32.10
2023-04-28T21:58:33.278Z,32.10
2023-04-28T22:00:48.728Z,32.09
2023-04-28T22:03:03.364Z,32.07
2023-04-28T22:05:17.047Z,32.08
2023-04-28T22:07:30.382Z,32.13
2023-04-28T22:09:42.945Z,32.13
2023-04-28T22:11:55.592Z,32.11
2023-04-28T22:14:12.058Z,32.08
2023-04-28T22:16:28.737Z,32.09
2023-04-28T22:18:41.412Z,32.04
2023-04-28T22:20:53.992Z,32.01
2023-04-28T22:23:07.178Z,31.96
2023-04-28T22:25:19.728Z,31.91
2023-04-28T22:27:33.809Z,31.91
2023-04-28T22:29:46.340Z,31.88
2023-04-28T22:31:59.666Z,31.88
2023-04-28T22:34:12.604Z,31.88
2023-04-28T22:36:25.272Z,31.91
2023-04-28T22:38:38.852Z,31.94
2023-04-28T22:40:52.186Z,31.94
2023-04-28T22:43:04.872Z,31.91
2023-04-28T22:45:17.898Z,31.87
2023-04-28T22:47:30.749Z,31.84
2023-04-28T22:49:43.876Z,31.86
2023-04-28T22:51:56.279Z,31.81
2023-04-28T22:54:09.632Z,31.79
2023-04-28T22:56:22.237Z,31.78
2023-04-28T22:58:34.848Z,31.78
2023-04-28T23:00:47.993Z,31.80
2023-04-28T23:03:00.711Z,31.77
2023-04-28T23:05:15.123Z,31.75
2023-04-28T23:07:27.899Z,31.72
2023-04-28T23:09:40.662Z,31.70
2023-04-28T23:11:53.203Z,31.70
2023-04-28T23:14:05.872Z,31.68
2023-04-28T23:16:18.354Z,31.66
2023-04-28T23:18:35.200Z,31.60
2023-04-28T23:20:50.124Z,31.58
2023-04-28T23:23:03.293Z,31.55
2023-04-28T23:25:16.872Z,31.47
2023-04-28T23:27:29.616Z,31.38
2023-04-28T23:29:42.197Z,31.39
2023-04-28T23:31:56.237Z,31.36
2023-04-28T23:34:08.889Z,31.28
2023-04-28T23:36:21.215Z,31.20
2023-04-28T23:38:34.137Z,31.13
2023-04-28T23:40:46.545Z,31.09
2023-04-28T23:42:59.349Z,31.04
2023-04-28T23:45:13.402Z,30.98
2023-04-28T23:47:25.948Z,30.95
2023-04-28T23:49:38.544Z,30.89
2023-04-28T23:51:51.320Z,30.80
2023-04-28T23:54:04.727Z,30.72
2023-04-28T23:56:17.649Z,30.72
2023-04-28T23:58:30.493Z,30.72
